Time,TemperatureF,DewpointF,PressureIn,WindDirection,WindDirectionDegrees,WindSpeedMPH,WindSpeedGustMPH,Humidity,HourlyPrecipIn,Conditions,Clouds,dailyrainin,SoftwareType,DateUTC
2013-03-06 00:01:00,13.0,10.0,30.77,ENE,65,3.0,-999.0,88,-99.99,,,-99.99,,2013-03-06 07:01:00,
2013-03-06 00:11:00,13.0,10.0,30.77,ENE,65,3.0,-999.0,88,-99.99,,,-99.99,,2013-03-06 07:11:00,
2013-03-06 00:22:00,13.0,10.0,30.76,ENE,65,0.0,-999.0,88,-99.99,,,-99.99,,2013-03-06 07:22:00,
2013-03-06 00:32:00,13.0,10.0,30.76,ENE,65,0.0,-999.0,88,-99.99,,,-99.99,,2013-03-06 07:32:00,
2013-03-06 00:42:00,13.0,10.0,30.76,ENE,65,0.0,-999.0,88,-99.99,,,-99.99,,2013-03-06 07:42:00,
2013-03-06 00:52:00,12.0,9.0,30.76,ENE,65,0.0,-999.0,88,-99.99,,,-99.99,,2013-03-06 07:52:00,
2013-03-06 01:01:00,12.0,9.0,30.76,ENE,65,0.0,-999.0,88,-99.99,,,-99.99,,2013-03-06 08:01:00,
2013-03-06 01:11:00,12.0,9.0,30.76,ENE,65,0.0,-999.0,88,-99.99,,,-99.99,,2013-03-06 08:11:00,
2013-03-06 01:21:00,12.0,9.0,30.76,ENE,65,0.0,-999.0,88,-99.99,,,-99.99,,2013-03-06 08:21:00,
2013-03-06 01:32:00,12.0,9.0,30.76,ENE,65,0.0,-999.0,88,-99.99,,,-99.99,,2013-03-06 08:32:00,
2013-03-06 01:42:00,12.0,9.0,30.76,ENE,65,0.0,-999.0,88,-99.99,,,-99.99,,2013-03-06 08:42:00,
2013-03-06 01:52:00,12.0,9.0,30.76,ENE,65,0.0,-999.0,88,-99.99,,,-99.99,,2013-03-06 08:52:00,
2013-03-06 02:01:00,13.0,10.0,30.76,ENE,65,0.0,-999.0,89,-99.99,,,-99.99,,2013-03-06 09:01:00,
2013-03-06 02:12:00,13.0,10.0,30.76,ENE,65,0.0,-999.0,89,-99.99,,,-99.99,,2013-03-06 09:12:00,
2013-03-06 02:21:00,13.0,10.0,30.75,ENE,65,0.0,-999.0,88,-99.99,,,-99.99,,2013-03-06 09:21:00,
2013-03-06 02:32:00,12.0,9.0,30.75,ENE,65,0.0,-999.0,89,-99.99,,,-99.99,,2013-03-06 09:32:00,
2013-03-06 02:42:00,12.0,9.0,30.75,ENE,65,0.0,-999.0,89,-99.99,,,-99.99,,2013-03-06 09:42:00,
2013-03-06 02:51:00,11.0,9.0,30.74,SSE,158,0.0,-999.0,91,-99.99,,,-99.99,,2013-03-06 09:51:00,
2013-03-06 03:01:00,11.0,9.0,30.74,SSE,158,0.0,-999.0,91,-99.99,,,-99.99,,2013-03-06 10:01:00,
2013-03-06 03:11:00,11.0,9.0,30.74,SSE,158,0.0,-999.0,91,-99.99,,,-99.99,,2013-03-06 10:11:00,
2013-03-06 03:21:00,11.0,9.0,30.73,SSE,158,0.0,-999.0,90,-99.99,,,-99.99,,2013-03-06 10:21:00,
2013-03-06 03:32:00,11.0,9.0,30.73,SSE,158,0.0,-999.0,90,-99.99,,,-99.99,,2013-03-06 10:32:00,
2013-03-06 03:42:00,11.0,9.0,30.73,SSE,158,0.0,-999.0,90,-99.99,,,-99.99,,2013-03-06 10:42:00,
2013-03-06 03:51:00,10.0,8.0,30.72,SSE,158,0.0,-999.0,90,-99.99,,,-99.99,,2013-03-06 10:51:00,
2013-03-06 04:02:00,10.0,8.0,30.72,SSE,158,0.0,-999.0,90,-99.99,,,-99.99,,2013-03-06 11:02:00,
2013-03-06 04:11:00,10.0,8.0,30.72,SSE,158,0.0,-999.0,90,-99.99,,,-99.99,,2013-03-06 11:11:00,
2013-03-06 04:22:00,10.0,8.0,30.72,SSE,158,0.0,-999.0,90,-99.99,,,-99.99,,2013-03-06 11:22:00,
2013-03-06 04:32:00,10.0,8.0,30.71,SSE,158,0.0,-999.0,90,-99.99,,,-99.99,,2013-03-06 11:32:00,
2013-03-06 04:42:00,10.0,8.0,30.71,SSE,158,0.0,-999.0,90,-99.99,,,-99.99,,2013-03-06 11:42:00,
2013-03-06 04:52:00,10.0,8.0,30.71,SSE,158,0.0,-999.0,90,-99.99,,,-99.99,,2013-03-06 11:52:00,
2013-03-06 05:02:00,10.0,8.0,30.71,SSE,158,0.0,-999.0,90,-99.99,,,-99.99,,2013-03-06 12:02:00,
2013-03-06 05:11:00,10.0,8.0,30.71,SSE,158,0.0,-999.0,90,-99.99,,,-99.99,,2013-03-06 12:11:00,
2013-03-06 05:22:00,9.0,7.0,30.71,SSE,158,0.0,-999.0,90,-99.99,,,-99.99,,2013-03-06 12:22:00,
2013-03-06 05:33:00,14.0,12.0,30.71,ENE,65,0.0,-999.0,91,-99.99,,,-99.99,,2013-03-06 12:33:00,
2013-03-06 05:42:00,14.0,12.0,30.71,ENE,65,0.0,-999.0,91,-99.99,,,-99.99,,2013-03-06 12:42:00,
2013-03-06 05:52:00,14.0,12.0,30.71,ENE,65,0.0,-999.0,91,-99.99,,,-99.99,,2013-03-06 12:52:00,
2013-03-06 06:02:00,14.0,12.0,30.71,ENE,65,0.0,-999.0,90,-99.99,,,-99.99,,2013-03-06 13:02:00,
2013-03-06 06:12:00,14.0,12.0,30.71,ENE,65,0.0,-999.0,90,-99.99,,,-99.99,,2013-03-06 13:12:00,
2013-03-06 06:22:00,15.0,13.0,30.71,ENE,65,0.0,-999.0,90,-99.99,,,-99.99,,2013-03-06 13:22:00,
2013-03-06 06:32:00,15.0,13.0,30.70,ENE,65,0.0,-999.0,90,-99.99,,,-99.99,,2013-03-06 13:32:00,
2013-03-06 06:42:00,15.0,13.0,30.70,ENE,65,0.0,-999.0,90,-99.99,,,-99.99,,2013-03-06 13:42:00,
2013-03-06 06:52:00,15.0,13.0,30.69,ENE,65,0.0,-999.0,90,-99.99,,,-99.99,,2013-03-06 13:52:00,
2013-03-06 07:01:00,15.0,12.0,30.70,ENE,65,1.0,-999.0,89,-99.99,,,-99.99,,2013-03-06 14:01:00,
2013-03-06 07:11:00,15.0,12.0,30.70,ENE,65,1.0,-999.0,89,-99.99,,,-99.99,,2013-03-06 14:11:00,
2013-03-06 07:22:00,15.0,12.0,30.69,ENE,65,0.0,-999.0,89,-99.99,,,-99.99,,2013-03-06 14:22:00,
2013-03-06 07:32:00,16.0,13.0,30.68,ENE,65,0.0,-999.0,88,-99.99,,,-99.99,,2013-03-06 14:32:00,
2013-03-06 07:42:00,16.0,13.0,30.68,ENE,65,0.0,-999.0,88,-99.99,,,-99.99,,2013-03-06 14:42:00,
2013-03-06 07:52:00,17.0,14.0,30.68,ENE,70,1.0,-999.0,87,-99.99,,,-99.99,,2013-03-06 14:52:00,
2013-03-06 08:02:00,17.0,14.0,30.68,ENE,73,4.0,-999.0,86,-99.99,,,-99.99,,2013-03-06 15:02:00,
2013-03-06 08:11:00,17.0,14.0,30.68,ENE,73,4.0,-999.0,86,-99.99,,,-99.99,,2013-03-06 15:11:00,
2013-03-06 08:21:00,17.0,13.0,30.68,East,88,6.0,-999.0,85,-99.99,,,-99.99,,2013-03-06 15:21:00,
2013-03-06 08:32:00,17.0,13.0,30.68,ESE,105,7.0,-999.0,84,-99.99,,,-99.99,,2013-03-06 15:32:00,
2013-03-06 08:42:00,17.0,13.0,30.68,ESE,105,7.0,-999.0,84,-99.99,,,-99.99,,2013-03-06 15:42:00,
2013-03-06 08:52:00,17.0,13.0,30.68,ESE,113,9.0,-999.0,84,-99.99,,,-99.99,,2013-03-06 15:52:00,
2013-03-06 09:01:00,18.0,16.0,30.66,ESE,108,8.0,-999.0,92,-99.99,,,-99.99,,2013-03-06 16:01:00,
2013-03-06 09:11:00,18.0,16.0,30.66,ESE,108,8.0,-999.0,92,-99.99,,,-99.99,,2013-03-06 16:11:00,
2013-03-06 09:21:00,18.0,14.0,30.66,ESE,106,8.0,-999.0,84,-99.99,,,-99.99,,2013-03-06 16:21:00,
2013-03-06 09:32:00,18.0,13.0,30.65,ESE,111,9.0,-999.0,82,-99.99,,,-99.99,,2013-03-06 16:32:00,
2013-03-06 09:42:00,18.0,13.0,30.65,ESE,111,9.0,-999.0,82,-99.99,,,-99.99,,2013-03-06 16:42:00,
2013-03-06 09:52:00,18.0,13.0,30.63,ESE,119,9.0,-999.0,82,-99.99,,,-99.99,,2013-03-06 16:52:00,
2013-03-06 10:01:00,19.0,14.0,30.63,East,101,9.0,-999.0,82,-99.99,,,-99.99,,2013-03-06 17:01:00,
2013-03-06 10:11:00,19.0,14.0,30.63,East,101,9.0,-999.0,82,-99.99,,,-99.99,,2013-03-06 17:11:00,
2013-03-06 10:21:00,19.0,14.0,30.63,East,101,8.0,-999.0,82,-99.99,,,-99.99,,2013-03-06 17:21:00,
2013-03-06 10:32:00,19.0,14.0,30.62,East,101,9.0,-999.0,81,-99.99,,,-99.99,,2013-03-06 17:32:00,
2013-03-06 10:42:00,19.0,14.0,30.62,East,101,9.0,-999.0,81,-99.99,,,-99.99,,2013-03-06 17:42:00,
2013-03-06 10:52:00,20.0,15.0,30.61,ESE,103,9.0,-999.0,81,-99.99,,,-99.99,,2013-03-06 17:52:00,
2013-03-06 11:02:00,20.0,15.0,30.61,East,97,10.0,-999.0,80,-99.99,,,-99.99,,2013-03-06 18:02:00,
2013-03-06 11:28:00,21.0,16.0,30.60,ESE,102,9.0,-999.0,81,-99.99,,,-99.99,,2013-03-06 18:28:00,
2013-03-06 11:42:00,21.0,16.0,30.59,East,98,7.0,-999.0,80,-99.99,,,-99.99,,2013-03-06 18:42:00,
2013-03-06 11:52:00,22.0,17.0,30.58,ESE,102,9.0,-999.0,81,-99.99,,,-99.99,,2013-03-06 18:52:00,
2013-03-06 12:02:00,22.0,17.0,30.58,East,101,8.0,-999.0,81,-99.99,,,-99.99,,2013-03-06 19:02:00,
2013-03-06 12:11:00,22.0,17.0,30.58,East,101,8.0,-999.0,81,-99.99,,,-99.99,,2013-03-06 19:11:00,
2013-03-06 12:22:00,23.0,18.0,30.56,East,92,8.0,-999.0,80,-99.99,,,-99.99,,2013-03-06 19:22:00,
2013-03-06 12:32:00,23.0,17.0,30.56,ESE,117,9.0,-999.0,79,-99.99,,,-99.99,,2013-03-06 19:32:00,
2013-03-06 12:43:00,23.0,17.0,30.56,ESE,117,9.0,-999.0,79,-99.99,,,-99.99,,2013-03-06 19:43:00,
2013-03-06 12:52:00,24.0,19.0,30.55,East,97,8.0,-999.0,80,-99.99,,,-99.99,,2013-03-06 19:52:00,
2013-03-06 13:02:00,25.0,19.0,30.54,East,95,8.0,-999.0,79,-99.99,,,-99.99,,2013-03-06 20:02:00,
2013-03-06 13:12:00,25.0,19.0,30.54,East,95,8.0,-999.0,79,-99.99,,,-99.99,,2013-03-06 20:12:00,
2013-03-06 13:22:00,25.0,19.0,30.52,ESE,116,10.0,-999.0,78,-99.99,,,-99.99,,2013-03-06 20:22:00,
2013-03-06 13:32:00,26.0,20.0,30.50,East,90,9.0,-999.0,78,-99.99,,,-99.99,,2013-03-06 20:32:00,
2013-03-06 13:42:00,26.0,20.0,30.50,East,90,9.0,-999.0,78,-99.99,,,-99.99,,2013-03-06 20:42:00,
2013-03-06 13:52:00,26.0,20.0,30.50,East,98,8.0,-999.0,78,-99.99,,,-99.99,,2013-03-06 20:52:00,
2013-03-06 14:02:00,26.0,20.0,30.49,East,89,9.0,-999.0,78,-99.99,,,-99.99,,2013-03-06 21:02:00,
2013-03-06 14:12:00,26.0,20.0,30.49,East,89,9.0,-999.0,78,-99.99,,,-99.99,,2013-03-06 21:12:00,
2013-03-06 14:22:00,26.0,20.0,30.47,ESE,108,11.0,-999.0,78,-99.99,,,-99.99,,2013-03-06 21:22:00,
2013-03-06 14:32:00,27.0,21.0,30.47,East,101,10.0,-999.0,78,-99.99,,,-99.99,,2013-03-06 21:32:00,
2013-03-06 14:42:00,27.0,21.0,30.47,East,101,10.0,-999.0,78,-99.99,,,-99.99,,2013-03-06 21:42:00,
2013-03-06 14:51:00,27.0,21.0,30.46,East,97,9.0,-999.0,77,-99.99,,,-99.99,,2013-03-06 21:51:00,
2013-03-06 15:01:00,28.0,22.0,30.46,East,99,8.0,-999.0,79,-99.99,,,-99.99,,2013-03-06 22:01:00,
2013-03-06 15:11:00,28.0,22.0,30.46,East,99,8.0,-999.0,79,-99.99,,,-99.99,,2013-03-06 22:11:00,
2013-03-06 15:22:00,27.0,21.0,30.47,East,96,9.0,-999.0,79,-99.99,,,-99.99,,2013-03-06 22:22:00,
2013-03-06 15:32:00,27.0,21.0,30.46,East,84,11.0,-999.0,79,-99.99,,,-99.99,,2013-03-06 22:32:00,
2013-03-06 15:42:00,27.0,21.0,30.46,East,84,11.0,-999.0,79,-99.99,,,-99.99,,2013-03-06 22:42:00,
2013-03-06 15:51:00,27.0,21.0,30.46,East,91,10.0,-999.0,79,-99.99,,,-99.99,,2013-03-06 22:51:00,
2013-03-06 16:01:00,27.0,21.0,30.46,East,96,11.0,-999.0,79,-99.99,,,-99.99,,2013-03-06 23:01:00,
2013-03-06 16:11:00,27.0,21.0,30.46,East,96,11.0,-999.0,79,-99.99,,,-99.99,,2013-03-06 23:11:00,
2013-03-06 16:21:00,27.0,22.0,30.45,ESE,103,10.0,-999.0,80,-99.99,,,-99.99,,2013-03-06 23:21:00,
2013-03-06 16:32:00,27.0,22.0,30.45,East,101,10.0,-999.0,81,-99.99,,,-99.99,,2013-03-06 23:32:00,
2013-03-06 16:42:00,27.0,22.0,30.45,East,101,10.0,-999.0,81,-99.99,,,-99.99,,2013-03-06 23:42:00,
2013-03-06 16:52:00,26.0,21.0,30.45,ESE,119,11.0,-999.0,81,-99.99,,,-99.99,,2013-03-06 23:52:00,
2013-03-06 17:01:00,26.0,21.0,30.45,East,97,11.0,-999.0,81,-99.99,,,-99.99,,2013-03-07 00:01:00,
2013-03-06 17:11:00,26.0,21.0,30.45,East,97,11.0,-999.0,81,-99.99,,,-99.99,,2013-03-07 00:11:00,
2013-03-06 17:21:00,26.0,21.0,30.44,ESE,104,11.0,-999.0,82,-99.99,,,-99.99,,2013-03-07 00:21:00,
2013-03-06 17:32:00,26.0,21.0,30.43,ESE,103,12.0,-999.0,82,-99.99,,,-99.99,,2013-03-07 00:32:00,
2013-03-06 17:42:00,26.0,21.0,30.43,ESE,103,12.0,-999.0,82,-99.99,,,-99.99,,2013-03-07 00:42:00,
2013-03-06 17:52:00,26.0,22.0,30.42,East,85,9.0,-999.0,83,-99.99,,,-99.99,,2013-03-07 00:52:00,
2013-03-06 18:01:00,26.0,22.0,30.42,East,85,9.0,-999.0,83,-99.99,,,-99.99,,2013-03-07 01:01:00,
2013-03-06 18:11:00,26.0,22.0,30.42,East,85,9.0,-999.0,83,-99.99,,,-99.99,,2013-03-07 01:11:00,
2013-03-06 18:21:00,26.0,22.0,30.42,ESE,114,10.0,-999.0,83,-99.99,,,-99.99,,2013-03-07 01:21:00,
2013-03-06 18:32:00,26.0,22.0,30.42,East,93,8.0,-999.0,84,-99.99,,,-99.99,,2013-03-07 01:32:00,
2013-03-06 18:42:00,26.0,22.0,30.42,East,93,8.0,-999.0,84,-99.99,,,-99.99,,2013-03-07 01:42:00,
2013-03-06 18:51:00,26.0,22.0,30.42,East,100,8.0,-999.0,84,-99.99,,,-99.99,,2013-03-07 01:51:00,
2013-03-06 19:01:00,26.0,21.0,30.41,ESE,119,10.0,-999.0,82,-99.99,,,-99.99,,2013-03-07 02:01:00,
2013-03-06 19:11:00,26.0,21.0,30.41,ESE,119,10.0,-999.0,82,-99.99,,,-99.99,,2013-03-07 02:11:00,
2013-03-06 19:21:00,26.0,22.0,30.41,East,100,8.0,-999.0,83,-99.99,,,-99.99,,2013-03-07 02:21:00,
2013-03-06 19:32:00,26.0,22.0,30.39,East,92,8.0,-999.0,83,-99.99,,,-99.99,,2013-03-07 02:32:00,
2013-03-06 19:41:00,26.0,22.0,30.39,East,92,8.0,-999.0,83,-99.99,,,-99.99,,2013-03-07 02:41:00,
2013-03-06 19:51:00,26.0,22.0,30.39,East,92,8.0,-999.0,83,-99.99,,,-99.99,,2013-03-07 02:51:00,
2013-03-06 20:02:00,25.0,21.0,30.39,East,94,7.0,-999.0,84,-99.99,,,-99.99,,2013-03-07 03:02:00,
2013-03-06 20:11:00,25.0,21.0,30.39,East,94,7.0,-999.0,84,-99.99,,,-99.99,,2013-03-07 03:11:00,
2013-03-06 20:21:00,25.0,21.0,30.40,East,92,6.0,-999.0,84,-99.99,,,-99.99,,2013-03-07 03:21:00,
2013-03-06 20:32:00,25.0,21.0,30.39,East,90,7.0,-999.0,84,-99.99,,,-99.99,,2013-03-07 03:32:00,
2013-03-06 20:42:00,25.0,21.0,30.39,East,90,7.0,-999.0,84,-99.99,,,-99.99,,2013-03-07 03:42:00,
2013-03-06 20:52:00,25.0,21.0,30.39,East,94,8.0,-999.0,84,-99.99,,,-99.99,,2013-03-07 03:52:00,
2013-03-06 21:01:00,25.0,21.0,30.39,East,96,9.0,-999.0,84,-99.99,,,-99.99,,2013-03-07 04:01:00,
2013-03-06 21:11:00,25.0,21.0,30.39,East,96,9.0,-999.0,84,-99.99,,,-99.99,,2013-03-07 04:11:00,
2013-03-06 21:21:00,25.0,21.0,30.40,East,86,10.0,-999.0,83,-99.99,,,-99.99,,2013-03-07 04:21:00,
2013-03-06 21:32:00,24.0,20.0,30.40,East,91,10.0,-999.0,83,-99.99,,,-99.99,,2013-03-07 04:32:00,
2013-03-06 21:42:00,24.0,20.0,30.40,East,91,10.0,-999.0,83,-99.99,,,-99.99,,2013-03-07 04:42:00,
2013-03-06 21:51:00,24.0,20.0,30.39,East,94,8.0,-999.0,84,-99.99,,,-99.99,,2013-03-07 04:51:00,
2013-03-06 22:02:00,24.0,20.0,30.39,East,87,6.0,-999.0,84,-99.99,,,-99.99,,2013-03-07 05:02:00,
2013-03-06 22:12:00,24.0,20.0,30.39,East,87,6.0,-999.0,84,-99.99,,,-99.99,,2013-03-07 05:12:00,
2013-03-06 22:22:00,23.0,19.0,30.38,East,87,8.0,-999.0,84,-99.99,,,-99.99,,2013-03-07 05:22:00,
2013-03-06 22:32:00,23.0,19.0,30.38,East,88,8.0,-999.0,84,-99.99,,,-99.99,,2013-03-07 05:32:00,
2013-03-06 22:42:00,23.0,19.0,30.38,East,88,8.0,-999.0,84,-99.99,,,-99.99,,2013-03-07 05:42:00,
2013-03-06 22:52:00,22.0,18.0,30.38,East,92,9.0,-999.0,84,-99.99,,,-99.99,,2013-03-07 05:52:00,
2013-03-06 23:01:00,22.0,18.0,30.37,East,90,7.0,-999.0,84,-99.99,,,-99.99,,2013-03-07 06:01:00,
2013-03-06 23:11:00,22.0,18.0,30.37,East,90,7.0,-999.0,84,-99.99,,,-99.99,,2013-03-07 06:11:00,
2013-03-06 23:21:00,22.0,18.0,30.37,East,92,7.0,-999.0,85,-99.99,,,-99.99,,2013-03-07 06:21:00,
2013-03-06 23:32:00,22.0,18.0,30.37,East,85,6.0,-999.0,85,-99.99,,,-99.99,,2013-03-07 06:32:00,
2013-03-06 23:42:00,22.0,18.0,30.37,East,85,6.0,-999.0,85,-99.99,,,-99.99,,2013-03-07 06:42:00,
2013-03-06 23:51:00,21.0,17.0,30.37,East,88,6.0,-999.0,85,-99.99,,,-99.99,,2013-03-07 06:51:00,